createdAt,value
2018-08-22T00:00:16.895Z,4.47
2018-08-22T00:02:45.237Z,4.43
2018-08-22T00:05:13.517Z,4.30
2018-08-22T00:07:41.930Z,4.60
2018-08-22T00:10:10.303Z,4.60
2018-08-22T00:12:38.622Z,4.40
2018-08-22T00:15:06.921Z,4.07
2018-08-22T00:17:35.234Z,5.03
2018-08-22T00:20:03.540Z,4.20
2018-08-22T00:22:31.950Z,4.30
2018-08-22T00:25:00.231Z,4.30
2018-08-22T00:27:28.731Z,4.50
2018-08-22T00:29:57.007Z,4.70
2018-08-22T00:32:25.286Z,4.13
2018-08-22T00:34:53.614Z,4.73
2018-08-22T00:37:22.177Z,4.10
2018-08-22T00:39:50.526Z,4.27
2018-08-22T00:42:18.807Z,4.50
2018-08-22T00:44:47.335Z,4.50
2018-08-22T00:47:15.686Z,4.23
2018-08-22T00:49:44.010Z,4.43
2018-08-22T00:52:12.306Z,5.33
2018-08-22T00:54:40.741Z,4.40
2018-08-22T00:57:09.082Z,5.13
2018-08-22T00:59:37.499Z,5.13
2018-08-22T01:02:05.796Z,4.60
2018-08-22T01:04:34.107Z,4.90
2018-08-22T01:07:02.427Z,5.20
2018-08-22T01:09:30.814Z,4.80
2018-08-22T01:11:59.098Z,5.07
2018-08-22T01:14:27.423Z,4.90
2018-08-22T01:16:55.778Z,5.30
2018-08-22T01:19:24.059Z,5.40
2018-08-22T01:21:52.405Z,4.50
2018-08-22T01:24:20.731Z,4.40
2018-08-22T01:26:49.071Z,4.77
2018-08-22T01:29:17.408Z,4.40
2018-08-22T01:31:45.709Z,4.83
2018-08-22T01:34:14.038Z,4.57
2018-08-22T01:36:42.494Z,5.43
2018-08-22T01:39:10.777Z,5.13
2018-08-22T01:41:39.103Z,4.70
2018-08-22T01:44:07.378Z,4.90
2018-08-22T01:46:35.821Z,5.07
2018-08-22T01:49:04.102Z,5.07
2018-08-22T01:51:32.439Z,4.80
2018-08-22T01:54:00.751Z,5.00
2018-08-22T01:56:29.074Z,4.70
2018-08-22T01:58:57.652Z,4.37
2018-08-22T02:01:25.972Z,4.37
2018-08-22T02:03:54.486Z,5.37
2018-08-22T02:06:22.815Z,5.10
2018-08-22T02:08:51.105Z,4.20
2018-08-22T02:11:19.382Z,4.27
2018-08-22T02:13:47.715Z,3.97
2018-08-22T02:16:16.014Z,4.40
2018-08-22T02:18:44.371Z,4.43
2018-08-22T02:21:12.691Z,4.03
2018-08-22T02:23:40.969Z,4.07
2018-08-22T02:26:09.522Z,3.63
2018-08-22T02:28:37.856Z,3.47
2018-08-22T02:31:06.170Z,3.43
2018-08-22T02:33:34.523Z,3.93
2018-08-22T02:36:02.916Z,3.40
2018-08-22T02:38:31.659Z,3.57
2018-08-22T02:40:59.967Z,3.10
2018-08-22T02:43:28.254Z,3.33
2018-08-22T02:45:56.608Z,3.40
2018-08-22T02:48:24.957Z,3.50
2018-08-22T02:50:53.233Z,3.37
2018-08-22T02:53:21.512Z,3.60
2018-08-22T02:55:49.805Z,3.60
2018-08-22T02:58:18.235Z,3.53
2018-08-22T03:00:46.543Z,3.33
2018-08-22T03:03:14.900Z,3.13
2018-08-22T03:05:43.344Z,3.33
2018-08-22T03:08:11.676Z,3.10
2018-08-22T03:10:40.055Z,3.40
2018-08-22T03:13:08.349Z,3.50
2018-08-22T03:15:36.668Z,3.60
2018-08-22T03:18:05.017Z,3.03
2018-08-22T03:20:33.273Z,3.00
2018-08-22T03:23:01.587Z,3.47
2018-08-22T03:25:29.929Z,3.27
2018-08-22T03:27:58.246Z,3.43
2018-08-22T03:30:45.617Z,3.03
2018-08-22T03:33:24.926Z,3.23
2018-08-22T03:36:03.216Z,3.40
2018-08-22T03:38:31.578Z,3.90
2018-08-22T03:40:59.997Z,3.07
2018-08-22T03:43:28.326Z,3.17
2018-08-22T03:45:56.672Z,4.03
2018-08-22T03:48:25.008Z,4.20
2018-08-22T03:50:53.377Z,3.53
2018-08-22T03:53:22.026Z,3.17
2018-08-22T03:55:50.370Z,3.60
2018-08-22T03:58:18.715Z,3.27
2018-08-22T04:00:47.039Z,3.60
2018-08-22T04:03:15.378Z,6.63
2018-08-22T04:05:43.884Z,8.07
2018-08-22T04:08:12.185Z,6.00
2018-08-22T04:10:40.501Z,5.10
2018-08-22T04:13:08.788Z,3.73
2018-08-22T04:15:37.236Z,3.40
2018-08-22T04:18:05.699Z,2.80
2018-08-22T04:20:34.246Z,3.40
2018-08-22T04:23:02.632Z,3.43
2018-08-22T04:25:30.961Z,3.70
2018-08-22T04:27:59.256Z,3.00
2018-08-22T04:30:28.324Z,3.33
2018-08-22T04:32:56.641Z,2.70
2018-08-22T04:35:24.983Z,3.17
2018-08-22T04:37:53.362Z,3.30
2018-08-22T04:40:21.843Z,2.93
2018-08-22T04:42:50.223Z,3.50
2018-08-22T04:45:18.621Z,3.40
2018-08-22T04:47:46.916Z,3.10
2018-08-22T04:50:15.185Z,3.27
2018-08-22T04:52:43.523Z,3.40
2018-08-22T04:55:11.817Z,3.00
2018-08-22T04:57:40.269Z,3.33
2018-08-22T05:00:10.183Z,4.23
2018-08-22T05:02:38.974Z,3.37
2018-08-22T05:05:07.695Z,3.40
2018-08-22T05:07:36.046Z,3.20
2018-08-22T05:10:04.449Z,3.83
2018-08-22T05:12:33.082Z,4.23
2018-08-22T05:15:01.409Z,3.93
2018-08-22T05:17:29.927Z,3.70
2018-08-22T05:19:58.270Z,3.77
2018-08-22T05:22:26.634Z,3.87
2018-08-22T05:24:55.116Z,3.50
2018-08-22T05:27:23.523Z,3.83
2018-08-22T05:29:52.237Z,3.50
2018-08-22T05:32:20.549Z,3.50
2018-08-22T05:34:48.832Z,3.40
2018-08-22T05:37:17.208Z,3.37
2018-08-22T05:39:45.486Z,3.80
2018-08-22T05:42:13.786Z,3.40
2018-08-22T05:44:42.046Z,3.40
2018-08-22T05:47:10.350Z,3.57
2018-08-22T05:49:38.779Z,3.70
2018-08-22T05:52:07.087Z,3.83
2018-08-22T05:54:35.402Z,3.40
2018-08-22T05:57:03.694Z,3.60
2018-08-22T05:59:31.962Z,3.73
2018-08-22T06:02:00.752Z,3.53
2018-08-22T06:04:29.080Z,3.60
2018-08-22T06:06:57.508Z,3.40
2018-08-22T06:09:25.834Z,2.93
2018-08-22T06:11:54.372Z,3.20
2018-08-22T06:14:22.903Z,3.40
2018-08-22T06:16:51.218Z,2.90
2018-08-22T06:19:19.528Z,3.00
2018-08-22T06:21:47.856Z,3.07
2018-08-22T06:24:16.509Z,2.90
2018-08-22T06:26:44.844Z,3.40
2018-08-22T06:29:13.453Z,2.97
2018-08-22T06:31:41.910Z,2.97
2018-08-22T06:34:10.271Z,3.00
2018-08-22T06:36:38.585Z,2.80
2018-08-22T06:39:08.750Z,2.80
2018-08-22T06:41:37.354Z,2.67
2018-08-22T06:44:05.842Z,3.03
2018-08-22T06:46:34.277Z,3.07
2018-08-22T06:49:02.621Z,2.90
2018-08-22T06:51:31.026Z,2.70
2018-08-22T06:53:59.302Z,2.73
2018-08-22T06:56:27.699Z,2.63
2018-08-22T06:58:56.053Z,2.53
2018-08-22T07:01:24.340Z,2.53
2018-08-22T07:03:52.668Z,2.30
2018-08-22T07:06:21.136Z,2.37
2018-08-22T07:08:49.633Z,2.53
2018-08-22T07:11:17.945Z,2.30
2018-08-22T07:13:46.460Z,2.20
2018-08-22T07:16:14.903Z,2.30
2018-08-22T07:18:43.345Z,2.30
2018-08-22T07:21:11.648Z,2.77
2018-08-22T07:23:39.940Z,2.67
2018-08-22T07:26:08.211Z,2.47
2018-08-22T07:28:36.611Z,2.12
2018-08-22T07:31:05.225Z,2.75
2018-08-22T07:33:33.540Z,2.30
2018-08-22T07:36:01.837Z,2.25
2018-08-22T07:38:30.122Z,2.42
2018-08-22T07:40:58.379Z,2.45
2018-08-22T07:43:26.681Z,2.60
2018-08-22T07:45:57.822Z,2.40
2018-08-22T07:48:26.127Z,2.30
2018-08-22T07:50:54.579Z,2.27
2018-08-22T07:53:22.891Z,2.42
2018-08-22T07:55:51.294Z,2.50
2018-08-22T07:58:19.622Z,2.05
2018-08-22T08:00:47.866Z,2.12
2018-08-22T08:03:16.274Z,2.20
2018-08-22T08:05:44.660Z,2.90
2018-08-22T08:08:12.960Z,2.80
2018-08-22T08:10:41.410Z,2.90
2018-08-22T08:13:15.399Z,2.30
2018-08-22T08:15:43.678Z,2.80
2018-08-22T08:18:11.981Z,2.50
2018-08-22T08:20:40.450Z,2.58
2018-08-22T08:23:08.726Z,2.67
2018-08-22T08:25:37.059Z,2.40
2018-08-22T08:28:05.553Z,2.62
2018-08-22T08:30:33.952Z,2.40
2018-08-22T08:33:02.183Z,2.22
2018-08-22T08:35:30.584Z,2.83
2018-08-22T08:37:58.865Z,2.20
2018-08-22T08:40:27.146Z,2.65
2018-08-22T08:42:55.400Z,2.87
2018-08-22T08:45:23.788Z,2.50
2018-08-22T08:47:52.147Z,2.85
2018-08-22T08:50:20.511Z,2.83
2018-08-22T08:52:48.774Z,2.52
2018-08-22T08:55:17.085Z,2.58
2018-08-22T08:57:45.390Z,2.70
2018-08-22T09:00:13.752Z,2.50
2018-08-22T09:02:42.108Z,2.77
2018-08-22T09:05:10.758Z,2.47
2018-08-22T09:07:39.083Z,2.37
2018-08-22T09:10:07.487Z,2.55
2018-08-22T09:12:37.723Z,2.30
2018-08-22T09:15:07.159Z,2.35
2018-08-22T09:17:35.667Z,2.50
2018-08-22T09:20:04.318Z,2.70
2018-08-22T09:22:33.292Z,2.60
2018-08-22T09:25:01.680Z,2.50
2018-08-22T09:27:30.090Z,2.65
2018-08-22T09:29:58.885Z,2.90
2018-08-22T09:32:27.207Z,2.50
2018-08-22T09:34:55.646Z,2.90
2018-08-22T09:37:24.090Z,2.75
2018-08-22T09:39:52.969Z,2.70
2018-08-22T09:42:21.385Z,2.83
2018-08-22T09:44:49.856Z,2.92
2018-08-22T09:47:18.123Z,3.45
2018-08-22T09:49:46.476Z,3.20
2018-08-22T09:52:14.881Z,3.67
2018-08-22T09:54:55.029Z,3.15
2018-08-22T09:57:24.822Z,3.50
2018-08-22T09:59:53.345Z,3.65
2018-08-22T10:02:21.814Z,3.52
2018-08-22T10:04:50.421Z,3.20
2018-08-22T10:07:21.851Z,3.33
2018-08-22T10:09:50.379Z,3.50
2018-08-22T10:12:18.725Z,3.67
2018-08-22T10:14:47.221Z,3.60
2018-08-22T10:17:15.585Z,3.30
2018-08-22T10:19:43.980Z,3.37
2018-08-22T10:22:12.304Z,4.00
2018-08-22T10:24:40.631Z,3.83
2018-08-22T10:27:09.036Z,3.87
2018-08-22T10:29:37.226Z,3.90
2018-08-22T10:32:05.514Z,3.45
2018-08-22T10:34:34.167Z,3.12
2018-08-22T10:37:02.495Z,3.67
2018-08-22T10:39:30.868Z,3.92
2018-08-22T10:41:59.290Z,3.65
2018-08-22T10:44:27.611Z,3.50
2018-08-22T10:46:55.922Z,3.62
2018-08-22T10:49:24.325Z,3.80
2018-08-22T10:51:52.634Z,3.60
2018-08-22T10:54:21.024Z,3.65
2018-08-22T10:56:49.326Z,4.12
2018-08-22T10:59:17.586Z,3.83
2018-08-22T11:01:45.874Z,4.33
2018-08-22T11:04:14.379Z,4.00
2018-08-22T11:06:42.686Z,3.77
2018-08-22T11:09:11.732Z,3.67
2018-08-22T11:11:40.096Z,4.20
2018-08-22T11:14:08.708Z,3.62
2018-08-22T11:16:37.903Z,3.83
2018-08-22T11:19:06.329Z,4.37
2018-08-22T11:21:45.939Z,4.60
2018-08-22T11:24:26.082Z,4.97
2018-08-22T11:27:05.715Z,4.47
2018-08-22T11:29:45.335Z,4.90
2018-08-22T11:32:24.894Z,5.15
2018-08-22T11:34:52.683Z,4.70
2018-08-22T11:37:20.980Z,5.10
2018-08-22T11:39:50.542Z,4.45
2018-08-22T11:42:19.047Z,4.22
2018-08-22T11:44:47.302Z,4.12
2018-08-22T11:47:15.611Z,4.20
2018-08-22T11:49:43.973Z,4.60
2018-08-22T11:52:12.251Z,4.45
2018-08-22T11:54:40.523Z,5.05
2018-08-22T11:57:09.001Z,5.00
2018-08-22T11:59:37.278Z,4.97
2018-08-22T12:02:05.719Z,4.90
2018-08-22T12:04:34.002Z,4.90
2018-08-22T12:07:02.306Z,4.80
2018-08-22T12:09:30.697Z,4.85
2018-08-22T12:11:59.118Z,4.60
2018-08-22T12:14:27.452Z,5.10
2018-08-22T12:16:55.783Z,5.20
2018-08-22T12:19:24.058Z,4.83
2018-08-22T12:21:52.382Z,4.60
2018-08-22T12:24:20.675Z,4.90
2018-08-22T12:26:49.098Z,4.87
2018-08-22T12:29:17.350Z,4.87
2018-08-22T12:31:45.775Z,5.20
2018-08-22T12:34:14.405Z,5.08
2018-08-22T12:36:42.876Z,4.75
2018-08-22T12:39:11.257Z,5.10
2018-08-22T12:41:39.546Z,5.05
2018-08-22T12:44:07.815Z,5.42
2018-08-22T12:46:36.087Z,4.72
2018-08-22T12:49:04.660Z,4.92
2018-08-22T12:51:33.014Z,4.80
2018-08-22T12:54:01.630Z,4.90
2018-08-22T12:56:30.135Z,5.00
2018-08-22T12:58:58.423Z,5.60
2018-08-22T13:01:26.724Z,4.97
2018-08-22T13:03:55.028Z,5.17
2018-08-22T13:06:23.318Z,5.28
2018-08-22T13:08:52.218Z,5.20
2018-08-22T13:11:20.494Z,5.20
2018-08-22T13:13:48.853Z,5.28
2018-08-22T13:16:17.303Z,5.33
2018-08-22T13:18:45.803Z,5.03
2018-08-22T13:21:14.088Z,5.12
2018-08-22T13:23:42.607Z,5.17
2018-08-22T13:26:10.902Z,5.40
2018-08-22T13:28:39.273Z,5.12
2018-08-22T13:31:07.856Z,5.42
2018-08-22T13:33:36.811Z,5.12
2018-08-22T13:36:05.289Z,5.35
2018-08-22T13:38:33.547Z,5.50
2018-08-22T13:41:01.863Z,5.08
2018-08-22T13:43:30.435Z,5.20
2018-08-22T13:45:58.782Z,5.58
2018-08-22T13:48:27.266Z,5.25
2018-08-22T13:50:55.793Z,5.30
2018-08-22T13:53:24.013Z,4.95
2018-08-22T13:55:52.605Z,5.58
2018-08-22T13:58:21.290Z,5.50
2018-08-22T14:00:49.616Z,5.40
2018-08-22T14:03:18.301Z,5.42
2018-08-22T14:05:46.999Z,5.10
2018-08-22T14:08:15.413Z,5.10
2018-08-22T14:10:43.864Z,5.53
2018-08-22T14:13:12.373Z,5.62
2018-08-22T14:15:40.843Z,6.30
2018-08-22T14:18:09.298Z,5.50
2018-08-22T14:20:37.598Z,5.25
2018-08-22T14:23:06.654Z,5.58
2018-08-22T14:25:35.130Z,5.95
2018-08-22T14:28:03.646Z,6.00
2018-08-22T14:30:32.039Z,5.75
2018-08-22T14:33:00.372Z,5.50
2018-08-22T14:35:28.650Z,5.58
2018-08-22T14:37:56.957Z,5.40
2018-08-22T14:40:25.478Z,5.55
2018-08-22T14:42:55.330Z,5.70
2018-08-22T14:45:23.594Z,5.55
2018-08-22T14:47:51.854Z,5.53
2018-08-22T14:50:20.138Z,5.87
2018-08-22T14:52:48.395Z,5.28
2018-08-22T14:55:17.019Z,5.62
2018-08-22T14:57:45.307Z,5.60
2018-08-22T15:00:13.611Z,5.60
2018-08-22T15:02:42.248Z,5.50
2018-08-22T15:05:10.400Z,5.60
2018-08-22T15:07:38.865Z,5.85
2018-08-22T15:10:07.904Z,5.65
2018-08-22T15:12:36.226Z,5.40
2018-08-22T15:15:04.750Z,5.65
2018-08-22T15:17:33.165Z,5.45
2018-08-22T15:20:01.472Z,5.67
2018-08-22T15:22:29.811Z,5.58
2018-08-22T15:24:58.057Z,5.42
2018-08-22T15:27:26.470Z,5.62
2018-08-22T15:29:54.756Z,5.60
2018-08-22T15:32:23.107Z,5.67
2018-08-22T15:34:53.974Z,5.70
2018-08-22T15:37:22.930Z,5.72
2018-08-22T15:39:51.238Z,5.37
2018-08-22T15:42:19.762Z,5.22
2018-08-22T15:44:48.107Z,5.92
2018-08-22T15:47:16.473Z,6.12
2018-08-22T15:49:45.774Z,4.92
2018-08-22T15:52:14.283Z,5.40
2018-08-22T15:54:42.588Z,4.95
2018-08-22T15:57:10.895Z,5.30
2018-08-22T15:59:39.381Z,5.47
2018-08-22T16:02:07.696Z,5.47
2018-08-22T16:05:00.576Z,5.35
2018-08-22T16:07:28.905Z,4.90
2018-08-22T16:09:57.263Z,5.50
2018-08-22T16:12:25.588Z,5.35
2018-08-22T16:14:53.925Z,5.90
2018-08-22T16:17:22.355Z,5.62
2018-08-22T16:19:50.778Z,5.53
2018-08-22T16:22:19.059Z,5.70
2018-08-22T16:24:47.389Z,5.95
2018-08-22T16:27:15.909Z,5.95
2018-08-22T16:29:44.283Z,5.33
2018-08-22T16:32:12.623Z,5.62
2018-08-22T16:34:40.945Z,5.45
2018-08-22T16:37:09.672Z,6.03
2018-08-22T16:39:42.654Z,5.92
2018-08-22T16:42:11.334Z,5.65
2018-08-22T16:44:40.023Z,5.70
2018-08-22T16:47:08.427Z,5.75
2018-08-22T16:49:37.039Z,5.70
2018-08-22T16:52:05.556Z,5.17
2018-08-22T16:54:33.944Z,5.45
2018-08-22T16:57:02.749Z,5.47
2018-08-22T16:59:31.112Z,5.62
2018-08-22T17:01:59.610Z,5.62
2018-08-22T17:04:27.984Z,5.08
2018-08-22T17:06:58.256Z,5.40
2018-08-22T17:09:27.550Z,5.50
2018-08-22T17:11:55.820Z,5.60
2018-08-22T17:14:24.188Z,5.55
2018-08-22T17:16:52.471Z,5.50
2018-08-22T17:19:20.808Z,5.33
2018-08-22T17:21:49.099Z,5.25
2018-08-22T17:24:17.418Z,5.90
2018-08-22T17:26:45.676Z,5.30
2018-08-22T17:29:14.332Z,5.22
2018-08-22T17:31:45.016Z,5.40
2018-08-22T17:34:13.503Z,5.53
2018-08-22T17:36:41.955Z,5.20
2018-08-22T17:39:10.427Z,5.20
2018-08-22T17:41:38.724Z,5.22
2018-08-22T17:44:09.100Z,5.30
2018-08-22T17:46:40.537Z,5.50
2018-08-22T17:49:08.923Z,5.80
2018-08-22T17:52:11.554Z,5.40
2018-08-22T17:54:40.071Z,4.75
2018-08-22T17:57:14.874Z,6.10
2018-08-22T17:59:44.075Z,5.35
2018-08-22T18:02:34.971Z,5.30
2018-08-22T18:05:04.295Z,5.05
2018-08-22T18:07:32.773Z,5.58
2018-08-22T18:10:04.432Z,5.30
2018-08-22T18:12:37.558Z,5.53
2018-08-22T18:15:05.914Z,5.12
2018-08-22T18:17:34.670Z,5.40
2018-08-22T18:20:02.955Z,5.42
2018-08-22T18:22:35.380Z,5.40
2018-08-22T18:25:03.751Z,5.40
2018-08-22T18:27:32.327Z,6.05
2018-08-22T18:30:00.634Z,6.40
2018-08-22T18:32:28.970Z,6.12
2018-08-22T18:35:08.616Z,5.95
2018-08-22T18:37:36.985Z,5.80
2018-08-22T18:40:24.162Z,5.47
2018-08-22T18:42:55.658Z,6.45
2018-08-22T18:46:33.196Z,6.03
2018-08-22T18:49:02.595Z,6.00
2018-08-22T18:51:30.953Z,5.75
2018-08-22T18:53:59.600Z,6.10
2018-08-22T18:56:28.238Z,6.08
2018-08-22T18:58:56.902Z,5.60
2018-08-22T19:01:25.574Z,5.72
2018-08-22T19:03:56.207Z,5.47
2018-08-22T19:06:24.542Z,5.87
2018-08-22T19:08:52.795Z,6.00
2018-08-22T19:11:21.066Z,5.85
2018-08-22T19:13:49.406Z,5.58
2018-08-22T19:16:17.689Z,5.60
2018-08-22T19:18:45.985Z,5.70
2018-08-22T19:21:14.983Z,6.33
2018-08-22T19:23:44.980Z,6.35
2018-08-22T19:26:13.826Z,6.08
2018-08-22T19:28:54.324Z,6.17
2018-08-22T19:31:22.608Z,6.12
2018-08-22T19:33:51.101Z,6.20
2018-08-22T19:36:19.859Z,6.28
2018-08-22T19:38:48.151Z,5.80
2018-08-22T19:41:23.772Z,5.60
2018-08-22T19:43:52.399Z,5.75
2018-08-22T19:46:20.904Z,5.50
2018-08-22T19:48:49.265Z,5.95
2018-08-22T19:51:17.870Z,5.42
2018-08-22T19:54:05.318Z,5.60
2018-08-22T19:56:34.555Z,5.78
2018-08-22T19:59:03.603Z,6.17
2018-08-22T20:01:33.595Z,6.47
2018-08-22T20:04:01.974Z,6.22
2018-08-22T20:06:30.699Z,6.25
2018-08-22T20:09:00.036Z,5.80
2018-08-22T20:11:28.627Z,5.80
2018-08-22T20:14:02.094Z,6.37
2018-08-22T20:16:30.458Z,6.12
2018-08-22T20:19:00.869Z,5.97
2018-08-22T20:21:30.938Z,6.55
2018-08-22T20:23:59.828Z,6.15
2018-08-22T20:26:28.707Z,5.67
2018-08-22T20:29:01.771Z,5.95
2018-08-22T20:31:30.342Z,6.15
2018-08-22T20:34:04.514Z,6.33
2018-08-22T20:36:33.028Z,6.20
2018-08-22T20:39:05.894Z,6.53
2018-08-22T20:41:34.677Z,5.97
2018-08-22T20:44:03.433Z,6.80
2018-08-22T20:46:32.146Z,5.55
2018-08-22T20:49:01.001Z,6.28
2018-08-22T20:51:30.633Z,6.10
2018-08-22T20:54:04.532Z,6.17
2018-08-22T20:56:32.898Z,5.97
2018-08-22T20:59:01.315Z,6.50
2018-08-22T21:01:29.771Z,5.97
2018-08-22T21:03:58.098Z,6.30
2018-08-22T21:06:26.559Z,6.12
2018-08-22T21:08:55.039Z,6.12
2018-08-22T21:11:23.408Z,6.47
2018-08-22T21:13:51.897Z,5.90
2018-08-22T21:16:20.449Z,6.42
2018-08-22T21:18:48.732Z,6.55
2018-08-22T21:21:31.494Z,6.30
2018-08-22T21:24:05.954Z,6.62
2018-08-22T21:26:59.990Z,6.17
2018-08-22T21:29:39.995Z,6.45
2018-08-22T21:34:54.508Z,6.15
2018-08-22T21:37:28.879Z,6.28
2018-08-22T21:39:59.451Z,6.10
2018-08-22T21:42:38.292Z,6.10
2018-08-22T21:45:17.354Z,6.45
2018-08-22T21:47:53.326Z,6.97
2018-08-22T21:50:42.738Z,6.12
2018-08-22T21:53:18.787Z,6.10
2018-08-22T21:55:52.228Z,5.97
2018-08-22T21:58:21.600Z,6.08
2018-08-22T22:00:53.272Z,6.15
2018-08-22T22:03:29.429Z,6.03
2018-08-22T22:06:02.708Z,6.17
2018-08-22T22:08:38.764Z,6.12
2018-08-22T22:11:25.995Z,6.50
2018-08-22T22:14:08.773Z,6.15
2018-08-22T22:19:18.869Z,5.72
2018-08-22T22:21:52.428Z,6.97
2018-08-22T22:24:29.605Z,6.33
2018-08-22T22:27:11.772Z,6.47
2018-08-22T22:29:49.389Z,5.83
2018-08-22T22:32:18.762Z,6.62
2018-08-22T22:34:54.524Z,6.62
2018-08-22T22:40:37.601Z,6.42
2018-08-22T22:43:17.867Z,6.20
2018-08-22T22:48:54.145Z,6.50
2018-08-22T22:51:23.653Z,6.03
2018-08-22T22:53:55.720Z,5.60
2018-08-22T22:56:27.625Z,6.42
2018-08-22T22:58:57.006Z,5.85
2018-08-22T23:01:26.176Z,6.00
2018-08-22T23:04:08.849Z,5.83
2018-08-22T23:06:46.971Z,6.10
2018-08-22T23:09:20.227Z,6.40
2018-08-22T23:12:05.814Z,6.30
2018-08-22T23:14:42.349Z,6.28
2018-08-22T23:17:15.355Z,6.12
2018-08-22T23:19:44.267Z,6.33
2018-08-22T23:22:19.753Z,6.25
2018-08-22T23:24:59.147Z,6.12
2018-08-22T23:27:34.421Z,6.70
2018-08-22T23:33:02.066Z,7.08
2018-08-22T23:35:32.645Z,6.62
2018-08-22T23:38:03.073Z,6.85
2018-08-22T23:40:32.608Z,6.67
2018-08-22T23:43:00.960Z,6.58
2018-08-22T23:45:29.461Z,6.08
2018-08-22T23:47:57.809Z,6.20
2018-08-22T23:50:38.570Z,6.50
2018-08-22T23:53:06.875Z,6.80
2018-08-22T23:55:35.173Z,6.42
2018-08-22T23:58:03.491Z,6.45
